sensor_id;sensor_type;location;lat;lon;timestamp;pressure;altitude;pressure_sealevel;temperature
24278;BMP280;12394;42.692;23.314;2023-03-07T00:01:23;94215.13;;;8.68
24278;BMP280;12394;42.692;23.314;2023-03-07T00:03:49;94217.44;;;8.63
24278;BMP280;12394;42.692;23.314;2023-03-07T00:06:14;94215.31;;;8.84
24278;BMP280;12394;42.692;23.314;2023-03-07T00:08:39;94211.91;;;8.87
24278;BMP280;12394;42.692;23.314;2023-03-07T00:11:06;94213.09;;;8.83
24278;BMP280;12394;42.692;23.314;2023-03-07T00:13:33;94223.66;;;8.72
24278;BMP280;12394;42.692;23.314;2023-03-07T00:16:07;94197.88;;;8.78
24278;BMP280;12394;42.692;23.314;2023-03-07T00:18:34;94196.38;;;8.80
24278;BMP280;12394;42.692;23.314;2023-03-07T00:21:04;94185.22;;;8.80
24278;BMP280;12394;42.692;23.314;2023-03-07T00:23:32;94192.38;;;9.03
24278;BMP280;12394;42.692;23.314;2023-03-07T00:26:00;94193.63;;;9.18
24278;BMP280;12394;42.692;23.314;2023-03-07T00:28:26;94180.19;;;9.19
24278;BMP280;12394;42.692;23.314;2023-03-07T00:30:52;94189.63;;;9.36
24278;BMP280;12394;42.692;23.314;2023-03-07T00:33:17;94182.75;;;9.23
24278;BMP280;12394;42.692;23.314;2023-03-07T00:35:43;94187.97;;;9.23
24278;BMP280;12394;42.692;23.314;2023-03-07T00:38:08;94183.09;;;9.25
24278;BMP280;12394;42.692;23.314;2023-03-07T00:40:33;94186.94;;;9.17
24278;BMP280;12394;42.692;23.314;2023-03-07T00:42:59;94192.16;;;9.17
24278;BMP280;12394;42.692;23.314;2023-03-07T00:45:24;94189.66;;;9.10
24278;BMP280;12394;42.692;23.314;2023-03-07T00:47:49;94189.66;;;9.10
24278;BMP280;12394;42.692;23.314;2023-03-07T00:50:15;94194.97;;;9.03
24278;BMP280;12394;42.692;23.314;2023-03-07T00:52:40;94171.00;;;8.84
24278;BMP280;12394;42.692;23.314;2023-03-07T00:55:06;94155.84;;;8.72
24278;BMP280;12394;42.692;23.314;2023-03-07T00:57:32;94169.72;;;8.66
24278;BMP280;12394;42.692;23.314;2023-03-07T00:59:57;94184.91;;;8.74
24278;BMP280;12394;42.692;23.314;2023-03-07T01:02:22;94177.19;;;8.64
24278;BMP280;12394;42.692;23.314;2023-03-07T01:04:48;94170.16;;;8.61
24278;BMP280;12394;42.692;23.314;2023-03-07T01:07:13;94184.38;;;8.56
24278;BMP280;12394;42.692;23.314;2023-03-07T01:09:38;94182.13;;;8.58
24278;BMP280;12394;42.692;23.314;2023-03-07T01:12:04;94185.06;;;8.60
24278;BMP280;12394;42.692;23.314;2023-03-07T01:14:31;94170.25;;;8.54
24278;BMP280;12394;42.692;23.314;2023-03-07T01:16:57;94162.28;;;8.64
24278;BMP280;12394;42.692;23.314;2023-03-07T01:19:22;94156.38;;;8.60
24278;BMP280;12394;42.692;23.314;2023-03-07T01:21:48;94151.19;;;8.60
24278;BMP280;12394;42.692;23.314;2023-03-07T01:24:15;94128.88;;;8.56
24278;BMP280;12394;42.692;23.314;2023-03-07T01:26:41;94128.16;;;8.55
24278;BMP280;12394;42.692;23.314;2023-03-07T01:29:07;94137.44;;;8.56
24278;BMP280;12394;42.692;23.314;2023-03-07T01:31:32;94130.25;;;8.67
24278;BMP280;12394;42.692;23.314;2023-03-07T01:33:58;94133.53;;;8.71
24278;BMP280;12394;42.692;23.314;2023-03-07T01:36:27;94127.59;;;8.71
24278;BMP280;12394;42.692;23.314;2023-03-07T01:38:56;94118.72;;;8.91
24278;BMP280;12394;42.692;23.314;2023-03-07T01:41:22;94135.78;;;8.96
24278;BMP280;12394;42.692;23.314;2023-03-07T01:43:48;94139.94;;;8.93
24278;BMP280;12394;42.692;23.314;2023-03-07T01:52:15;94145.91;;;8.64
24278;BMP280;12394;42.692;23.314;2023-03-07T01:54:46;94145.22;;;8.60
24278;BMP280;12394;42.692;23.314;2023-03-07T01:57:14;94123.03;;;8.48
24278;BMP280;12394;42.692;23.314;2023-03-07T01:59:43;94136.63;;;8.63
24278;BMP280;12394;42.692;23.314;2023-03-07T02:02:13;94148.19;;;8.62
24278;BMP280;12394;42.692;23.314;2023-03-07T02:07:48;94126.38;;;8.48
24278;BMP280;12394;42.692;23.314;2023-03-07T02:10:16;94123.09;;;8.44
24278;BMP280;12394;42.692;23.314;2023-03-07T02:12:43;94117.25;;;8.33
24278;BMP280;12394;42.692;23.314;2023-03-07T02:15:10;94145.28;;;8.56
24278;BMP280;12394;42.692;23.314;2023-03-07T02:17:38;94131.16;;;8.54
24278;BMP280;12394;42.692;23.314;2023-03-07T02:23:25;94129.16;;;8.34
24278;BMP280;12394;42.692;23.314;2023-03-07T02:26:11;94129.50;;;8.36
24278;BMP280;12394;42.692;23.314;2023-03-07T02:28:38;94132.06;;;8.40
24278;BMP280;12394;42.692;23.314;2023-03-07T02:31:08;94136.44;;;8.46
24278;BMP280;12394;42.692;23.314;2023-03-07T02:33:34;94135.31;;;8.47
24278;BMP280;12394;42.692;23.314;2023-03-07T02:36:08;94122.88;;;8.28
24278;BMP280;12394;42.692;23.314;2023-03-07T02:38:37;94123.59;;;8.32
24278;BMP280;12394;42.692;23.314;2023-03-07T02:41:04;94127.25;;;8.38
24278;BMP280;12394;42.692;23.314;2023-03-07T02:43:30;94138.41;;;8.39
24278;BMP280;12394;42.692;23.314;2023-03-07T02:45:55;94131.97;;;8.47
24278;BMP280;12394;42.692;23.314;2023-03-07T02:48:20;94123.81;;;8.45
24278;BMP280;12394;42.692;23.314;2023-03-07T02:50:49;94140.59;;;8.44
24278;BMP280;12394;42.692;23.314;2023-03-07T02:53:14;94141.63;;;8.50
24278;BMP280;12394;42.692;23.314;2023-03-07T02:55:40;94141.59;;;8.54
24278;BMP280;12394;42.692;23.314;2023-03-07T02:58:06;94146.06;;;8.53
24278;BMP280;12394;42.692;23.314;2023-03-07T07:02:40;94182.25;;;11.00
24278;BMP280;12394;42.692;23.314;2023-03-07T07:05:05;94227.81;;;11.54
24278;BMP280;12394;42.692;23.314;2023-03-07T07:07:31;94225.63;;;11.53
24278;BMP280;12394;42.692;23.314;2023-03-07T07:09:56;94222.41;;;11.62
24278;BMP280;12394;42.692;23.314;2023-03-07T07:12:22;94189.16;;;11.58
24278;BMP280;12394;42.692;23.314;2023-03-07T07:14:47;94214.44;;;11.85
24278;BMP280;12394;42.692;23.314;2023-03-07T07:17:14;94233.63;;;12.11
24278;BMP280;12394;42.692;23.314;2023-03-07T07:19:39;94207.69;;;12.00
24278;BMP280;12394;42.692;23.314;2023-03-07T07:22:04;94199.47;;;12.14
24278;BMP280;12394;42.692;23.314;2023-03-07T07:24:33;94218.16;;;12.45
24278;BMP280;12394;42.692;23.314;2023-03-07T07:26:58;94225.09;;;12.52
24278;BMP280;12394;42.692;23.314;2023-03-07T07:29:24;94230.63;;;12.70
24278;BMP280;12394;42.692;23.314;2023-03-07T07:31:49;94235.63;;;12.93
24278;BMP280;12394;42.692;23.314;2023-03-07T07:34:14;94235.50;;;12.84
24278;BMP280;12394;42.692;23.314;2023-03-07T07:36:40;94235.13;;;12.69
24278;BMP280;12394;42.692;23.314;2023-03-07T07:39:06;94234.56;;;12.49
24278;BMP280;12394;42.692;23.314;2023-03-07T07:41:33;94219.03;;;12.55
24278;BMP280;12394;42.692;23.314;2023-03-07T07:43:58;94219.16;;;12.64
24278;BMP280;12394;42.692;23.314;2023-03-07T07:46:24;94243.41;;;12.68
24278;BMP280;12394;42.692;23.314;2023-03-07T07:48:52;94226.22;;;12.67
24278;BMP280;12394;42.692;23.314;2023-03-07T07:51:18;94236.56;;;12.58
24278;BMP280;12394;42.692;23.314;2023-03-07T07:53:43;94242.56;;;12.58
24278;BMP280;12394;42.692;23.314;2023-03-07T07:56:11;94233.47;;;12.46
24278;BMP280;12394;42.692;23.314;2023-03-07T07:58:37;94245.75;;;12.49
24278;BMP280;12394;42.692;23.314;2023-03-07T08:01:17;94243.13;;;12.49
24278;BMP280;12394;42.692;23.314;2023-03-07T08:03:43;94247.84;;;12.42
24278;BMP280;12394;42.692;23.314;2023-03-07T08:06:08;94245.50;;;12.60
24278;BMP280;12394;42.692;23.314;2023-03-07T08:08:34;94239.09;;;12.90
24278;BMP280;12394;42.692;23.314;2023-03-07T08:10:59;94243.53;;;13.31
24278;BMP280;12394;42.692;23.314;2023-03-07T08:13:25;94249.88;;;13.59
24278;BMP280;12394;42.692;23.314;2023-03-07T08:15:50;94251.72;;;13.96
24278;BMP280;12394;42.692;23.314;2023-03-07T08:18:15;94248.66;;;14.45
24278;BMP280;12394;42.692;23.314;2023-03-07T08:20:41;94247.22;;;14.44
24278;BMP280;12394;42.692;23.314;2023-03-07T08:23:06;94227.09;;;14.72
24278;BMP280;12394;42.692;23.314;2023-03-07T08:25:32;94231.34;;;15.22
24278;BMP280;12394;42.692;23.314;2023-03-07T08:27:58;94229.44;;;15.53
24278;BMP280;12394;42.692;23.314;2023-03-07T08:30:28;94246.34;;;15.74
24278;BMP280;12394;42.692;23.314;2023-03-07T08:32:54;94246.53;;;15.48
24278;BMP280;12394;42.692;23.314;2023-03-07T08:35:21;94240.94;;;15.46
24278;BMP280;12394;42.692;23.314;2023-03-07T08:37:47;94250.22;;;15.51
24278;BMP280;12394;42.692;23.314;2023-03-07T08:40:15;94250.56;;;15.62
24278;BMP280;12394;42.692;23.314;2023-03-07T08:42:42;94249.34;;;15.54
24278;BMP280;12394;42.692;23.314;2023-03-07T08:45:08;94244.28;;;15.78
24278;BMP280;12394;42.692;23.314;2023-03-07T08:47:33;94257.38;;;15.99
24278;BMP280;12394;42.692;23.314;2023-03-07T08:49:59;94250.09;;;16.22
24278;BMP280;12394;42.692;23.314;2023-03-07T08:52:24;94243.69;;;16.68
24278;BMP280;12394;42.692;23.314;2023-03-07T08:54:50;94238.59;;;18.23
24278;BMP280;12394;42.692;23.314;2023-03-07T08:57:15;94242.91;;;21.24
24278;BMP280;12394;42.692;23.314;2023-03-07T08:59:41;94236.34;;;23.17
24278;BMP280;12394;42.692;23.314;2023-03-07T09:02:09;94244.91;;;25.39
24278;BMP280;12394;42.692;23.314;2023-03-07T09:04:34;94242.31;;;27.29
24278;BMP280;12394;42.692;23.314;2023-03-07T09:07:00;94243.63;;;27.55
24278;BMP280;12394;42.692;23.314;2023-03-07T09:09:28;94242.50;;;28.95
24278;BMP280;12394;42.692;23.314;2023-03-07T09:11:53;94239.66;;;29.76
24278;BMP280;12394;42.692;23.314;2023-03-07T09:14:19;94210.84;;;31.22
24278;BMP280;12394;42.692;23.314;2023-03-07T09:16:44;94231.59;;;31.95
24278;BMP280;12394;42.692;23.314;2023-03-07T09:19:10;94226.03;;;31.63
24278;BMP280;12394;42.692;23.314;2023-03-07T09:21:35;94230.47;;;32.21
24278;BMP280;12394;42.692;23.314;2023-03-07T09:24:00;94234.63;;;31.31
24278;BMP280;12394;42.692;23.314;2023-03-07T09:26:26;94235.03;;;31.96
24278;BMP280;12394;42.692;23.314;2023-03-07T09:28:51;94219.53;;;33.06
24278;BMP280;12394;42.692;23.314;2023-03-07T09:31:17;94189.91;;;32.69
24278;BMP280;12394;42.692;23.314;2023-03-07T09:33:42;94205.25;;;32.74
24278;BMP280;12394;42.692;23.314;2023-03-07T09:39:08;94171.81;;;33.03
24278;BMP280;12394;42.692;23.314;2023-03-07T09:47:30;94198.75;;;34.01
24278;BMP280;12394;42.692;23.314;2023-03-07T09:50:02;94205.06;;;32.72
24278;BMP280;12394;42.692;23.314;2023-03-07T09:52:36;94185.06;;;31.82
24278;BMP280;12394;42.692;23.314;2023-03-07T09:55:05;94192.88;;;32.88
24278;BMP280;12394;42.692;23.314;2023-03-07T09:57:46;94172.25;;;31.90
24278;BMP280;12394;42.692;23.314;2023-03-07T10:00:25;94171.06;;;33.60
24278;BMP280;12394;42.692;23.314;2023-03-07T10:05:37;94161.25;;;35.67
24278;BMP280;12394;42.692;23.314;2023-03-07T10:08:04;94164.94;;;35.16
24278;BMP280;12394;42.692;23.314;2023-03-07T10:10:42;94138.31;;;34.17
24278;BMP280;12394;42.692;23.314;2023-03-07T10:16:03;94149.69;;;33.39
24278;BMP280;12394;42.692;23.314;2023-03-07T10:21:46;94155.28;;;33.41
24278;BMP280;12394;42.692;23.314;2023-03-07T10:27:10;94140.22;;;32.74
24278;BMP280;12394;42.692;23.314;2023-03-07T10:29:50;94152.09;;;33.35
24278;BMP280;12394;42.692;23.314;2023-03-07T10:35:15;94139.16;;;34.81
24278;BMP280;12394;42.692;23.314;2023-03-07T10:37:46;94136.63;;;35.19
24278;BMP280;12394;42.692;23.314;2023-03-07T10:40:35;94107.69;;;32.74
24278;BMP280;12394;42.692;23.314;2023-03-07T10:43:32;94117.41;;;32.84
24278;BMP280;12394;42.692;23.314;2023-03-07T10:46:10;94111.59;;;32.15
24278;BMP280;12394;42.692;23.314;2023-03-07T10:48:53;94116.75;;;30.75
24278;BMP280;12394;42.692;23.314;2023-03-07T10:54:35;94082.91;;;29.23
24278;BMP280;12394;42.692;23.314;2023-03-07T10:59:44;93976.75;;;29.54
24278;BMP280;12394;42.692;23.314;2023-03-07T11:05:28;94064.94;;;28.76
24278;BMP280;12394;42.692;23.314;2023-03-07T11:08:14;94056.97;;;28.50
24278;BMP280;12394;42.692;23.314;2023-03-07T11:10:46;94040.66;;;26.82
24278;BMP280;12394;42.692;23.314;2023-03-07T11:13:35;94047.41;;;26.25
24278;BMP280;12394;42.692;23.314;2023-03-07T11:16:40;94053.53;;;26.20
24278;BMP280;12394;42.692;23.314;2023-03-07T11:23:17;94042.31;;;25.84
24278;BMP280;12394;42.692;23.314;2023-03-07T11:25:44;94034.59;;;24.13
24278;BMP280;12394;42.692;23.314;2023-03-07T11:28:37;94028.09;;;23.51
24278;BMP280;12394;42.692;23.314;2023-03-07T11:37:05;94019.03;;;22.62
24278;BMP280;12394;42.692;23.314;2023-03-07T11:39:47;94032.63;;;22.48
24278;BMP280;12394;42.692;23.314;2023-03-07T11:42:55;94011.38;;;21.72
24278;BMP280;12394;42.692;23.314;2023-03-07T11:45:50;94008.94;;;21.57
24278;BMP280;12394;42.692;23.314;2023-03-07T11:58:17;93996.66;;;21.88
24278;BMP280;12394;42.692;23.314;2023-03-07T12:16:23;93994.63;;;19.35
24278;BMP280;12394;42.692;23.314;2023-03-07T12:22:04;93980.94;;;19.17
24278;BMP280;12394;42.692;23.314;2023-03-07T12:24:49;93959.91;;;18.93
24278;BMP280;12394;42.692;23.314;2023-03-07T12:27:33;93865.84;;;18.13
24278;BMP280;12394;42.692;23.314;2023-03-07T12:30:13;93977.13;;;19.23
24278;BMP280;12394;42.692;23.314;2023-03-07T12:32:39;93973.91;;;19.34
24278;BMP280;12394;42.692;23.314;2023-03-07T12:37:40;93965.91;;;19.74
24278;BMP280;12394;42.692;23.314;2023-03-07T12:40:24;93977.19;;;19.95
24278;BMP280;12394;42.692;23.314;2023-03-07T12:43:00;93959.13;;;19.99
24278;BMP280;12394;42.692;23.314;2023-03-07T12:45:44;93937.97;;;19.79
24278;BMP280;12394;42.692;23.314;2023-03-07T12:48:50;93964.28;;;19.82
24278;BMP280;12394;42.692;23.314;2023-03-07T12:51:31;93968.38;;;19.37
24278;BMP280;12394;42.692;23.314;2023-03-07T12:54:19;93940.75;;;18.83
24278;BMP280;12394;42.692;23.314;2023-03-07T12:57:02;93956.66;;;19.03
24278;BMP280;12394;42.692;23.314;2023-03-07T12:59:32;93954.28;;;19.05
24278;BMP280;12394;42.692;23.314;2023-03-07T13:02:07;93954.22;;;19.20
24278;BMP280;12394;42.692;23.314;2023-03-07T13:04:40;93964.47;;;19.33
24278;BMP280;12394;42.692;23.314;2023-03-07T13:07:12;93954.59;;;19.13
24278;BMP280;12394;42.692;23.314;2023-03-07T13:09:42;93962.69;;;19.04
24278;BMP280;12394;42.692;23.314;2023-03-07T13:27:49;93955.31;;;17.80
24278;BMP280;12394;42.692;23.314;2023-03-07T13:30:36;93950.84;;;17.86
24278;BMP280;12394;42.692;23.314;2023-03-07T13:33:03;93957.94;;;18.09
24278;BMP280;12394;42.692;23.314;2023-03-07T13:35:53;93949.47;;;18.05
24278;BMP280;12394;42.692;23.314;2023-03-07T13:38:32;93952.50;;;17.98
24278;BMP280;12394;42.692;23.314;2023-03-07T13:41:05;93957.97;;;17.80
24278;BMP280;12394;42.692;23.314;2023-03-07T13:43:53;93957.06;;;17.83
24278;BMP280;12394;42.692;23.314;2023-03-07T13:49:33;93957.13;;;17.59
24278;BMP280;12394;42.692;23.314;2023-03-07T13:52:21;93959.06;;;17.49
24278;BMP280;12394;42.692;23.314;2023-03-07T13:54:48;93942.00;;;17.35
24278;BMP280;12394;42.692;23.314;2023-03-07T13:57:19;93958.44;;;17.54
24278;BMP280;12394;42.692;23.314;2023-03-07T14:00:18;93959.06;;;17.49
24278;BMP280;12394;42.692;23.314;2023-03-07T14:02:46;93967.38;;;17.42
24278;BMP280;12394;42.692;23.314;2023-03-07T14:05:12;93954.25;;;17.48
24278;BMP280;12394;42.692;23.314;2023-03-07T14:07:56;93957.03;;;17.68
24278;BMP280;12394;42.692;23.314;2023-03-07T14:10:29;93959.50;;;17.86
24278;BMP280;12394;42.692;23.314;2023-03-07T14:13:34;93952.50;;;17.83
24278;BMP280;12394;42.692;23.314;2023-03-07T14:16:35;93956.56;;;18.13
24278;BMP280;12394;42.692;23.314;2023-03-07T14:19:30;93962.16;;;18.30
24278;BMP280;12394;42.692;23.314;2023-03-07T14:22:05;93961.63;;;17.97
24278;BMP280;12394;42.692;23.314;2023-03-07T14:24:42;93959.97;;;17.85
24278;BMP280;12394;42.692;23.314;2023-03-07T14:27:13;93957.31;;;17.70
24278;BMP280;12394;42.692;23.314;2023-03-07T14:29:50;93934.03;;;17.59
24278;BMP280;12394;42.692;23.314;2023-03-07T14:32:27;93957.13;;;17.73
24278;BMP280;12394;42.692;23.314;2023-03-07T14:34:53;93959.06;;;17.49
24278;BMP280;12394;42.692;23.314;2023-03-07T14:37:29;93969.72;;;17.40
24278;BMP280;12394;42.692;23.314;2023-03-07T14:40:26;93966.78;;;17.23
24278;BMP280;12394;42.692;23.314;2023-03-07T14:51:22;93962.63;;;16.51
24278;BMP280;12394;42.692;23.314;2023-03-07T14:53:49;93969.16;;;16.32
24278;BMP280;12394;42.692;23.314;2023-03-07T14:56:21;93967.13;;;16.27
24278;BMP280;12394;42.692;23.314;2023-03-07T14:58:50;93951.75;;;16.25
24278;BMP280;12394;42.692;23.314;2023-03-07T15:01:18;93967.13;;;16.18
24278;BMP280;12394;42.692;23.314;2023-03-07T15:03:48;93965.72;;;16.08
24278;BMP280;12394;42.692;23.314;2023-03-07T15:06:17;93966.47;;;15.99
24278;BMP280;12394;42.692;23.314;2023-03-07T15:08:44;93973.38;;;15.96
24278;BMP280;12394;42.692;23.314;2023-03-07T15:11:31;93964.16;;;15.83
24278;BMP280;12394;42.692;23.314;2023-03-07T15:16:34;93966.06;;;15.46
24278;BMP280;12394;42.692;23.314;2023-03-07T15:19:08;93961.69;;;15.25
24278;BMP280;12394;42.692;23.314;2023-03-07T15:21:38;93955.25;;;15.17
24278;BMP280;12394;42.692;23.314;2023-03-07T15:24:04;93960.66;;;15.13
24278;BMP280;12394;42.692;23.314;2023-03-07T15:26:30;93974.56;;;15.13
24278;BMP280;12394;42.692;23.314;2023-03-07T15:29:03;93942.94;;;14.95
24278;BMP280;12394;42.692;23.314;2023-03-07T15:31:53;93957.88;;;14.98
24278;BMP280;12394;42.692;23.314;2023-03-07T15:34:31;93950.22;;;14.82
24278;BMP280;12394;42.692;23.314;2023-03-07T15:37:32;93971.44;;;14.79
24278;BMP280;12394;42.692;23.314;2023-03-07T15:42:50;93954.56;;;14.49
24278;BMP280;12394;42.692;23.314;2023-03-07T15:45:36;93964.16;;;14.43
24278;BMP280;12394;42.692;23.314;2023-03-07T15:50:59;93954.16;;;14.29
24278;BMP280;12394;42.692;23.314;2023-03-07T15:53:28;93960.75;;;14.33
24278;BMP280;12394;42.692;23.314;2023-03-07T15:55:57;93970.50;;;14.23
24278;BMP280;12394;42.692;23.314;2023-03-07T15:58:23;93953.91;;;14.05
24278;BMP280;12394;42.692;23.314;2023-03-07T16:01:03;93977.47;;;14.17
24278;BMP280;12394;42.692;23.314;2023-03-07T16:03:29;93945.78;;;13.90
24278;BMP280;12394;42.692;23.314;2023-03-07T16:05:56;93991.50;;;14.14
24278;BMP280;12394;42.692;23.314;2023-03-07T16:08:22;93978.84;;;14.00
24278;BMP280;12394;42.692;23.314;2023-03-07T16:11:02;93967.69;;;13.87
24278;BMP280;12394;42.692;23.314;2023-03-07T16:13:39;93992.44;;;13.99
24278;BMP280;12394;42.692;23.314;2023-03-07T16:18:37;94000.53;;;13.82
24278;BMP280;12394;42.692;23.314;2023-03-07T16:21:04;93994.34;;;13.76
24278;BMP280;12394;42.692;23.314;2023-03-07T16:23:32;93998.31;;;13.81
24278;BMP280;12394;42.692;23.314;2023-03-07T16:26:04;94006.19;;;13.81
24278;BMP280;12394;42.692;23.314;2023-03-07T16:28:56;93997.09;;;13.73
24278;BMP280;12394;42.692;23.314;2023-03-07T16:31:37;94008.47;;;13.70
24278;BMP280;12394;42.692;23.314;2023-03-07T16:34:23;94006.38;;;13.65
24278;BMP280;12394;42.692;23.314;2023-03-07T16:37:03;93998.50;;;13.65
24278;BMP280;12394;42.692;23.314;2023-03-07T16:39:29;94015.94;;;13.71
24278;BMP280;12394;42.692;23.314;2023-03-07T16:41:54;94017.75;;;13.62
24278;BMP280;12394;42.692;23.314;2023-03-07T16:44:20;94008.69;;;13.41
24278;BMP280;12394;42.692;23.314;2023-03-07T16:47:10;94013.72;;;13.48
24278;BMP280;12394;42.692;23.314;2023-03-07T16:49:37;94020.25;;;13.44
24278;BMP280;12394;42.692;23.314;2023-03-07T16:52:21;94023.72;;;13.41
24278;BMP280;12394;42.692;23.314;2023-03-07T16:54:58;93863.47;;;12.03
24278;BMP280;12394;42.692;23.314;2023-03-07T16:57:24;94014.75;;;13.16
24278;BMP280;12394;42.692;23.314;2023-03-07T16:59:49;94037.63;;;13.28
24278;BMP280;12394;42.692;23.314;2023-03-07T17:02:19;94037.63;;;13.28
24278;BMP280;12394;42.692;23.314;2023-03-07T17:04:45;94010.66;;;13.15
24278;BMP280;12394;42.692;23.314;2023-03-07T17:07:19;94014.66;;;13.20
24278;BMP280;12394;42.692;23.314;2023-03-07T17:09:46;94041.53;;;13.24
24278;BMP280;12394;42.692;23.314;2023-03-07T17:12:12;94038.41;;;13.16
24278;BMP280;12394;42.692;23.314;2023-03-07T17:14:38;94026.31;;;13.06
24278;BMP280;12394;42.692;23.314;2023-03-07T17:17:04;93910.75;;;12.25
24278;BMP280;12394;42.692;23.314;2023-03-07T17:19:31;94015.38;;;12.95
24278;BMP280;12394;42.692;23.314;2023-03-07T17:21:58;94032.53;;;13.12
24278;BMP280;12394;42.692;23.314;2023-03-07T17:24:26;94026.94;;;13.10
24278;BMP280;12394;42.692;23.314;2023-03-07T17:26:53;93995.47;;;12.72
24278;BMP280;12394;42.692;23.314;2023-03-07T17:29:54;94029.88;;;13.00
24278;BMP280;12394;42.692;23.314;2023-03-07T17:32:25;94028.75;;;12.88
24278;BMP280;12394;42.692;23.314;2023-03-07T17:34:51;94034.22;;;12.93
24278;BMP280;12394;42.692;23.314;2023-03-07T17:37:16;94043.34;;;12.89
24278;BMP280;12394;42.692;23.314;2023-03-07T17:39:42;94035.78;;;12.91
24278;BMP280;12394;42.692;23.314;2023-03-07T17:42:09;94028.44;;;12.86
24278;BMP280;12394;42.692;23.314;2023-03-07T17:44:35;94032.53;;;12.87
24278;BMP280;12394;42.692;23.314;2023-03-07T17:47:01;94037.25;;;12.92
24278;BMP280;12394;42.692;23.314;2023-03-07T17:49:32;94038.84;;;12.89
24278;BMP280;12394;42.692;23.314;2023-03-07T17:51:58;94039.56;;;12.90
24278;BMP280;12394;42.692;23.314;2023-03-07T17:54:24;94041.75;;;12.91
24278;BMP280;12394;42.692;23.314;2023-03-07T17:56:52;94042.50;;;12.92
24278;BMP280;12394;42.692;23.314;2023-03-07T17:59:17;94029.69;;;12.81
24278;BMP280;12394;42.692;23.314;2023-03-07T18:01:46;94045.88;;;12.80
24278;BMP280;12394;42.692;23.314;2023-03-07T18:04:12;94033.19;;;12.66
24278;BMP280;12394;42.692;23.314;2023-03-07T18:06:37;94036.31;;;12.73
24278;BMP280;12394;42.692;23.314;2023-03-07T18:09:04;94043.56;;;12.69
24278;BMP280;12394;42.692;23.314;2023-03-07T18:11:31;94038.09;;;12.64
24278;BMP280;12394;42.692;23.314;2023-03-07T18:13:57;94046.41;;;12.62
24278;BMP280;12394;42.692;23.314;2023-03-07T18:16:23;94018.69;;;12.48
24278;BMP280;12394;42.692;23.314;2023-03-07T18:18:49;94046.28;;;12.66
24278;BMP280;12394;42.692;23.314;2023-03-07T18:21:16;94052.41;;;12.63
24278;BMP280;12394;42.692;23.314;2023-03-07T18:23:49;94049.84;;;12.59
24278;BMP280;12394;42.692;23.314;2023-03-07T18:26:15;94041.06;;;12.53
24278;BMP280;12394;42.692;23.314;2023-03-07T18:28:43;94060.34;;;12.59
24278;BMP280;12394;42.692;23.314;2023-03-07T18:31:12;94035.25;;;12.33
24278;BMP280;12394;42.692;23.314;2023-03-07T18:33:39;94057.19;;;12.52
24278;BMP280;12394;42.692;23.314;2023-03-07T18:36:36;94055.72;;;12.51
24278;BMP280;12394;42.692;23.314;2023-03-07T18:39:23;94062.66;;;12.44
24278;BMP280;12394;42.692;23.314;2023-03-07T18:41:49;94064.44;;;12.35
24278;BMP280;12394;42.692;23.314;2023-03-07T18:44:14;94056.97;;;12.33
24278;BMP280;12394;42.692;23.314;2023-03-07T18:46:43;94043.63;;;12.15
24278;BMP280;12394;42.692;23.314;2023-03-07T18:49:08;94069.56;;;12.38
24278;BMP280;12394;42.692;23.314;2023-03-07T18:51:34;94074.59;;;12.45
24278;BMP280;12394;42.692;23.314;2023-03-07T18:56:48;94056.47;;;12.51
24278;BMP280;12394;42.692;23.314;2023-03-07T18:59:29;94068.53;;;12.61
24278;BMP280;12394;42.692;23.314;2023-03-07T19:01:57;94072.31;;;12.60
24278;BMP280;12394;42.692;23.314;2023-03-07T19:04:27;94063.47;;;12.41
24278;BMP280;12394;42.692;23.314;2023-03-07T19:06:53;94076.72;;;12.51
24278;BMP280;12394;42.692;23.314;2023-03-07T19:09:22;94055.38;;;12.23
24278;BMP280;12394;42.692;23.314;2023-03-07T19:11:50;94075.13;;;12.40
24278;BMP280;12394;42.692;23.314;2023-03-07T19:14:16;94080.06;;;12.38
24278;BMP280;12394;42.692;23.314;2023-03-07T19:16:41;94080.47;;;12.37
24278;BMP280;12394;42.692;23.314;2023-03-07T19:19:07;94082.06;;;12.34
24278;BMP280;12394;42.692;23.314;2023-03-07T19:21:32;94078.28;;;12.35
24278;BMP280;12394;42.692;23.314;2023-03-07T19:23:59;94084.03;;;12.30
24278;BMP280;12394;42.692;23.314;2023-03-07T19:26:26;94065.88;;;12.23
24278;BMP280;12394;42.692;23.314;2023-03-07T19:28:53;94072.06;;;12.29
24278;BMP280;12394;42.692;23.314;2023-03-07T19:31:24;94088.84;;;12.32
24278;BMP280;12394;42.692;23.314;2023-03-07T19:33:50;94078.03;;;12.17
24278;BMP280;12394;42.692;23.314;2023-03-07T19:36:27;94074.56;;;12.20
24278;BMP280;12394;42.692;23.314;2023-03-07T19:38:54;94087.47;;;12.27
24278;BMP280;12394;42.692;23.314;2023-03-07T19:41:22;94071.63;;;12.18
24278;BMP280;12394;42.692;23.314;2023-03-07T19:43:48;94089.06;;;12.25
24278;BMP280;12394;42.692;23.314;2023-03-07T19:46:15;94088.31;;;12.24
24278;BMP280;12394;42.692;23.314;2023-03-07T19:48:44;94085.69;;;12.24
24278;BMP280;12394;42.692;23.314;2023-03-07T19:51:14;94083.91;;;12.21
24278;BMP280;12394;42.692;23.314;2023-03-07T19:53:41;94093.78;;;12.17
24278;BMP280;12394;42.692;23.314;2023-03-07T19:56:11;94077.56;;;12.06
24278;BMP280;12394;42.692;23.314;2023-03-07T19:58:37;94079.06;;;12.07
24278;BMP280;12394;42.692;23.314;2023-03-07T20:01:11;94086.41;;;12.12
24278;BMP280;12394;42.692;23.314;2023-03-07T20:03:37;94074.84;;;12.10
24278;BMP280;12394;42.692;23.314;2023-03-07T20:06:03;94092.47;;;12.09
24278;BMP280;12394;42.692;23.314;2023-03-07T20:08:30;94072.75;;;12.04
24278;BMP280;12394;42.692;23.314;2023-03-07T20:13:34;94089.03;;;12.12
24278;BMP280;12394;42.692;23.314;2023-03-07T20:15:59;94092.81;;;12.11
24278;BMP280;12394;42.692;23.314;2023-03-07T20:18:24;94098.09;;;11.95
24278;BMP280;12394;42.692;23.314;2023-03-07T20:20:50;94089.22;;;11.76
24278;BMP280;12394;42.692;23.314;2023-03-07T20:23:15;94096.44;;;11.56
24278;BMP280;12394;42.692;23.314;2023-03-07T20:25:40;94099.06;;;11.56
24278;BMP280;12394;42.692;23.314;2023-03-07T20:28:06;94106.84;;;11.43
24278;BMP280;12394;42.692;23.314;2023-03-07T20:30:31;94119.44;;;11.32